Aviation Digital Data Service (ADDS)

Output produced by TAFs form (2336 UTC 13 February 2016)
found at http://aviationweather.gov/adds/tafs/
 
KSAF 131722Z 1318/1418 36010KT P6SM SKC 
     FM132000 26009KT P6SM SKC 
     FM140130 34007KT P6SM SCT250